createdAt,value
2022-10-03T13:33:17.106Z,17.20
2022-10-03T13:36:00.430Z,17.00
2022-10-03T13:38:55.378Z,17.40
2022-10-03T13:41:55.643Z,17.50
2022-10-03T13:44:29.436Z,17.80
2022-10-03T13:47:10.015Z,18.20
2022-10-03T13:49:49.939Z,18.60
2022-10-03T13:52:25.142Z,19.00
2022-10-03T13:55:34.060Z,19.20
2022-10-03T13:58:33.056Z,19.30
2022-10-03T14:01:21.877Z,19.40
2022-10-03T14:04:18.014Z,19.50
2022-10-03T14:06:56.402Z,19.70
2022-10-03T14:09:52.888Z,19.60
2022-10-03T14:12:53.907Z,19.50
2022-10-03T14:15:28.957Z,19.40
2022-10-03T14:18:15.571Z,19.20
2022-10-03T14:21:19.472Z,19.10
2022-10-03T14:23:58.193Z,19.00
2022-10-03T14:26:35.762Z,19.00
2022-10-03T14:29:12.371Z,18.90
2022-10-03T14:31:50.598Z,18.80
2022-10-03T14:34:38.182Z,18.70
2022-10-03T14:37:19.991Z,18.40
2022-10-03T14:39:58.893Z,18.20
2022-10-03T14:42:40.101Z,17.90
2022-10-03T14:45:12.636Z,17.80
2022-10-03T14:47:44.131Z,17.60
2022-10-03T14:50:20.758Z,17.60
2022-10-03T14:53:02.391Z,17.50
2022-10-03T14:55:39.652Z,17.50
2022-10-03T14:58:18.002Z,17.40
2022-10-03T15:00:49.043Z,17.30
2022-10-03T15:03:34.021Z,17.30
2022-10-03T15:06:22.300Z,17.30
2022-10-03T15:08:54.798Z,17.20
2022-10-03T15:11:30.132Z,17.20
2022-10-03T15:14:02.737Z,17.20
2022-10-03T15:16:35.124Z,17.20
2022-10-03T15:19:10.572Z,17.20
2022-10-03T15:21:43.739Z,17.20
2022-10-03T15:24:23.125Z,17.20
2022-10-03T15:27:02.474Z,17.10
2022-10-03T15:29:32.786Z,17.00
2022-10-03T15:32:04.896Z,16.90
2022-10-03T15:34:40.026Z,16.80
2022-10-03T15:37:17.818Z,16.80
2022-10-03T15:39:48.929Z,16.60
2022-10-03T15:42:25.850Z,16.50
2022-10-03T15:44:58.130Z,16.50
2022-10-03T15:47:29.052Z,16.40
2022-10-03T15:50:03.309Z,16.40
2022-10-03T15:52:40.552Z,16.30
2022-10-03T15:55:16.104Z,16.30
2022-10-03T15:57:48.970Z,16.20
2022-10-03T16:00:25.202Z,16.20
2022-10-03T16:03:02.832Z,16.10
2022-10-03T16:05:32.977Z,16.10
2022-10-03T16:08:07.627Z,16.00
2022-10-03T16:10:41.413Z,16.00
2022-10-03T16:13:26.634Z,15.90
2022-10-03T16:16:10.727Z,15.90
2022-10-03T16:19:00.181Z,16.00
2022-10-03T16:21:50.054Z,16.00
2022-10-03T16:24:31.772Z,15.90
2022-10-03T16:27:12.668Z,15.80
2022-10-03T16:29:50.378Z,15.70
2022-10-03T16:32:24.056Z,15.70
2022-10-03T16:34:54.481Z,15.60
2022-10-03T16:37:27.229Z,15.60
2022-10-03T16:40:00.792Z,15.60
2022-10-03T16:42:40.257Z,15.50
2022-10-03T16:45:23.505Z,15.50
2022-10-03T16:48:12.670Z,15.50
2022-10-03T16:50:47.714Z,15.40
2022-10-03T16:53:18.452Z,15.30
2022-10-03T16:55:50.581Z,15.30
2022-10-03T16:58:24.891Z,15.20
2022-10-03T17:03:59.872Z,15.10
2022-10-03T17:06:33.664Z,15.00
2022-10-03T17:09:07.944Z,15.00
2022-10-03T17:11:40.169Z,15.00
2022-10-03T17:14:11.313Z,14.90
2022-10-03T17:16:48.004Z,14.90
2022-10-03T17:19:32.482Z,14.80
2022-10-03T17:22:08.969Z,14.80
2022-10-03T17:24:45.272Z,14.70
2022-10-03T17:27:22.946Z,14.70
2022-10-03T17:29:58.871Z,14.70
2022-10-03T17:32:34.463Z,14.60
2022-10-03T17:35:08.262Z,14.60
2022-10-03T17:38:19.902Z,14.60
2022-10-03T17:41:08.051Z,14.50
2022-10-03T17:43:42.011Z,14.50
2022-10-03T17:46:18.777Z,14.50
2022-10-03T17:48:59.562Z,14.40
2022-10-03T17:51:37.755Z,14.40
2022-10-03T17:54:15.746Z,14.40
2022-10-03T17:56:50.780Z,14.40
2022-10-03T17:59:28.504Z,14.40
2022-10-03T18:02:02.975Z,14.30
2022-10-03T18:04:37.801Z,14.30
2022-10-03T18:07:13.771Z,14.20
2022-10-03T18:09:47.762Z,14.20
2022-10-03T18:12:25.583Z,14.10
2022-10-03T18:16:00.977Z,14.10
2022-10-03T18:18:56.602Z,14.20
2022-10-03T18:21:38.626Z,14.20
2022-10-03T18:24:24.524Z,14.20
2022-10-03T18:27:06.411Z,14.30
2022-10-03T18:29:41.463Z,14.40
2022-10-03T18:32:16.362Z,14.50
2022-10-03T18:34:49.191Z,14.50
2022-10-03T18:37:55.591Z,14.50
2022-10-03T18:40:29.565Z,14.60
2022-10-03T18:43:01.205Z,14.60
2022-10-03T18:45:33.525Z,14.70
2022-10-03T18:48:11.921Z,14.60
2022-10-03T18:50:57.496Z,14.60
2022-10-03T18:53:36.948Z,14.60
2022-10-03T18:56:10.596Z,14.60
2022-10-03T18:58:45.313Z,14.60
2022-10-03T19:01:21.451Z,14.60
2022-10-03T19:03:58.043Z,14.60
2022-10-03T19:06:29.024Z,14.60
2022-10-03T19:09:06.712Z,14.60
2022-10-03T19:11:41.125Z,14.50
2022-10-03T19:14:15.241Z,14.50
2022-10-03T19:17:01.224Z,14.50
2022-10-03T19:19:38.853Z,14.50
2022-10-03T19:22:09.141Z,14.50
2022-10-03T19:24:57.935Z,14.50
2022-10-03T19:27:43.413Z,14.50
2022-10-03T19:30:20.469Z,14.40
2022-10-03T19:32:58.911Z,14.40
2022-10-03T19:35:29.897Z,14.30
2022-10-03T19:38:03.892Z,14.30
2022-10-03T19:40:46.569Z,14.30
2022-10-03T19:43:43.394Z,14.20
2022-10-03T19:46:35.640Z,14.10
2022-10-03T19:49:30.923Z,14.10
2022-10-03T19:52:20.105Z,14.00
2022-10-03T19:54:54.905Z,13.90
2022-10-03T19:57:29.783Z,13.90
2022-10-03T20:00:01.562Z,13.90
2022-10-03T20:02:31.485Z,13.90
2022-10-03T20:05:00.252Z,13.80
2022-10-03T20:07:47.322Z,13.80
2022-10-03T20:10:35.172Z,13.70
2022-10-03T20:13:05.311Z,13.70
2022-10-03T20:16:23.990Z,13.70
2022-10-03T20:18:55.223Z,13.70
2022-10-03T20:21:27.434Z,13.70
2022-10-03T20:23:56.823Z,13.50
2022-10-03T20:26:33.451Z,13.40
2022-10-03T20:29:21.918Z,13.40
2022-10-03T20:31:52.072Z,13.40
2022-10-03T20:34:25.251Z,13.40
2022-10-03T20:37:04.481Z,13.40
2022-10-03T20:39:53.392Z,13.40
2022-10-03T20:42:46.933Z,13.40
2022-10-03T20:45:39.544Z,13.40
2022-10-03T20:48:34.421Z,13.40
2022-10-03T20:51:24.682Z,13.40
2022-10-03T20:53:55.275Z,13.30
2022-10-03T20:56:33.496Z,13.40
2022-10-03T20:59:07.636Z,13.40
2022-10-03T21:01:39.764Z,13.30
2022-10-03T21:04:16.294Z,13.30
2022-10-03T21:06:57.902Z,13.30
2022-10-03T21:09:41.562Z,13.20
2022-10-03T21:12:19.134Z,13.10
2022-10-03T21:14:52.340Z,13.20
2022-10-03T21:17:23.079Z,13.20
2022-10-03T21:19:55.311Z,13.10
2022-10-03T21:22:25.801Z,13.00
2022-10-03T21:24:59.624Z,13.00
2022-10-03T21:27:28.851Z,13.00
2022-10-03T21:30:02.911Z,13.00
2022-10-03T21:33:00.185Z,13.00
2022-10-03T21:35:32.012Z,13.00
2022-10-03T21:38:18.382Z,12.90
2022-10-03T21:41:07.565Z,12.90
2022-10-03T21:43:48.352Z,12.80
2022-10-03T21:46:23.086Z,12.80
2022-10-03T21:49:08.361Z,12.70
2022-10-03T21:51:46.183Z,12.70
2022-10-03T21:54:32.841Z,12.60
2022-10-03T21:57:11.381Z,12.60
2022-10-03T21:59:58.417Z,12.60
2022-10-03T22:02:35.660Z,12.50
2022-10-03T22:05:14.394Z,12.50
2022-10-03T22:07:45.092Z,12.50
2022-10-03T22:10:21.723Z,12.40
2022-10-03T22:12:53.131Z,12.30
2022-10-03T22:15:35.771Z,12.20
2022-10-03T22:18:09.252Z,12.20
2022-10-03T22:20:50.212Z,12.10
2022-10-03T22:23:29.732Z,12.10
2022-10-03T22:26:15.975Z,12.00
2022-10-03T22:28:54.149Z,12.00
2022-10-03T22:31:31.348Z,11.90
2022-10-03T22:34:19.025Z,11.80
2022-10-03T22:36:49.996Z,11.80
2022-10-03T22:39:21.530Z,11.70
2022-10-03T22:41:55.000Z,11.70
2022-10-03T22:44:26.960Z,11.60
2022-10-03T22:46:58.861Z,11.60
2022-10-03T22:49:31.380Z,11.50
2022-10-03T22:52:05.011Z,11.50
2022-10-03T22:54:37.022Z,11.50
2022-10-03T22:57:08.531Z,11.50
2022-10-03T22:59:42.542Z,11.60
2022-10-03T23:02:11.961Z,11.60
2022-10-03T23:04:45.662Z,11.60
2022-10-03T23:07:57.983Z,11.60
2022-10-03T23:10:39.380Z,11.70
2022-10-03T23:13:14.801Z,11.70
2022-10-03T23:15:48.688Z,11.70
2022-10-03T23:18:49.951Z,11.70
2022-10-03T23:21:18.971Z,11.60
2022-10-03T23:24:00.894Z,11.60
2022-10-03T23:27:05.605Z,11.50
2022-10-03T23:29:34.212Z,11.50
2022-10-03T23:32:05.700Z,11.50
2022-10-03T23:35:06.474Z,11.50
2022-10-03T23:37:41.242Z,11.40
2022-10-03T23:40:41.131Z,11.30
2022-10-03T23:43:30.877Z,11.30
2022-10-03T23:46:01.880Z,11.30
2022-10-03T23:48:32.701Z,11.30
2022-10-03T23:51:05.075Z,11.30
2022-10-03T23:53:38.765Z,11.20
2022-10-03T23:56:24.787Z,11.30
2022-10-03T23:58:58.651Z,11.30
